Terminal Aerodrome Forecast
Issued by NWS

Home | Current Version | Previous Version | Text Only | Print | Product List | Glossary On
Versions: 1 2 3 4 5 6 7 8 9 10 11
000
FTUS44 KLIX 281137
TAFMSY
TAF
KMSY 281137Z 2812/2912 32004KT P6SM FEW020 BKN250
     FM290000 24005KT P6SM FEW250
     FM290900 25008KT P6SM BKN110=

USA.gov is the U.S. government's official web portal to all federal, state and local government web resources and services.